Time;durP1;ratioP1;P1;durP2;ratioP2;P2;SDS_P1;SDS_P2;PMS_P1;PMS_P2;Temp;Humidity;BMP_temperature;BMP_pressure;BME280_temperature;BME280_humidity;BME280_pressure;Samples;Min_cycle;Max_cycle;Signal;HPM_P1;HPM_P2
2021/12/01 00:00:08;;;;;;;;;;;179.90;2150.40;;;;;;5073962;28;19905;-79
2021/12/01 00:02:33;;;;;;;;;;;179.90;2150.40;;;;;;5073731;28;19974;-77
2021/12/01 00:04:59;;;;;;;;;;;179.90;2176.00;;;;;;5072790;28;20344;-78
2021/12/01 00:07:24;;;;;;;;;;;180.00;2176.00;;;;;;5074176;28;19904;-79
2021/12/01 00:09:51;;;;;;;;;;;180.00;2176.00;;;;;;5073842;28;19912;-79
2021/12/01 00:12:17;;;;;;;;;;;180.00;2176.00;;;;;;5074001;28;20348;-78
2021/12/01 00:14:43;;;;;;;;;;;180.00;2201.60;;;;;;5072243;28;19912;-78
2021/12/01 00:17:11;;;;;;;;;;;180.00;2176.00;;;;;;5072395;28;19905;-79
2021/12/01 00:19:37;;;;;;;;;;;180.10;2150.40;;;;;;5073809;28;20284;-79
2021/12/01 00:22:03;;;;;;;;;;;180.10;2150.40;;;;;;5072348;28;19909;-79
2021/12/01 00:24:28;;;;;;;;;;;180.10;2124.80;;;;;;5072760;28;19904;-79
2021/12/01 00:26:54;;;;;;;;;;;180.10;2124.80;;;;;;5072185;28;20161;-79
2021/12/01 00:29:19;;;;;;;;;;;180.10;2124.80;;;;;;5072849;28;19904;-79
2021/12/01 00:31:45;;;;;;;;;;;180.10;2150.40;;;;;;5072043;28;19908;-79
2021/12/01 00:34:11;;;;;;;;;;;180.10;2124.80;;;;;;5072137;28;19908;-79
2021/12/01 00:36:36;;;;;;;;;;;180.10;2124.80;;;;;;5072375;28;19957;-79
2021/12/01 00:39:03;;;;;;;;;;;180.10;2150.40;;;;;;5073417;28;19908;-77
2021/12/01 00:41:28;;;;;;;;;;;204.80;2124.80;;;;;;5073467;28;20011;-79
2021/12/01 00:43:54;;;;;;;;;;;204.80;2124.80;;;;;;5072301;28;20380;-77
2021/12/01 00:46:24;;;;;;;;;;;204.80;2124.80;;;;;;5073375;28;19915;-79
2021/12/01 00:48:50;;;;;;;;;;;204.80;2124.80;;;;;;5071720;28;20087;-78
2021/12/01 00:51:16;;;;;;;;;;;204.80;2124.80;;;;;;5073478;28;19908;-79
2021/12/01 00:53:42;;;;;;;;;;;204.90;2099.20;;;;;;5073119;28;20352;-79
2021/12/01 00:56:08;;;;;;;;;;;204.90;2073.60;;;;;;5073390;28;19909;-79
2021/12/01 00:58:34;;;;;;;;;;;204.90;2073.60;;;;;;5073183;28;19905;-78
2021/12/01 01:01:01;;;;;;;;;;;204.90;2124.80;;;;;;5072260;28;19912;-79
2021/12/01 01:03:28;;;;;;;;;;;204.90;2124.80;;;;;;5071821;28;19904;-80
2021/12/01 01:05:54;;;;;;;;;;;204.90;2099.20;;;;;;5073156;28;19908;-80
2021/12/01 01:08:19;;;;;;;;;;;205.00;2124.80;;;;;;5071960;28;19999;-79
2021/12/01 01:10:57;;;;;;;;;;;205.00;2124.80;;;;;;5073099;28;19955;-78
2021/12/01 01:16:22;;;;;;;;;;;205.00;2099.20;;;;;;5073233;28;19919;-80
2021/12/01 01:18:50;;;;;;;;;;;205.00;2099.20;;;;;;5071686;28;20331;-79
2021/12/01 01:21:16;;;;;;;;;;;205.00;2124.80;;;;;;5072305;28;19971;-76
2021/12/01 01:23:42;;;;;;;;;;;205.10;2124.80;;;;;;5072947;28;19904;-79
2021/12/01 01:26:09;;;;;;;;;;;205.10;2099.20;;;;;;5073246;28;19999;-78
2021/12/01 01:28:35;;;;;;;;;;;205.10;2124.80;;;;;;5073055;28;19958;-77
2021/12/01 01:31:01;;;;;;;;;;;205.10;2124.80;;;;;;5073199;28;19908;-79
2021/12/01 01:33:27;;;;;;;;;;;205.10;2124.80;;;;;;5073023;28;19930;-79
2021/12/01 01:35:53;;;;;;;;;;;205.10;2124.80;;;;;;5071559;28;19920;-78
2021/12/01 01:38:19;;;;;;;;;;;205.10;2099.20;;;;;;5071976;28;19908;-76
2021/12/01 01:40:44;;;;;;;;;;;205.10;2124.80;;;;;;5071886;28;20379;-79
2021/12/01 01:43:10;;;;;;;;;;;205.10;2099.20;;;;;;5072805;28;19908;-79
2021/12/01 01:45:36;;;;;;;;;;;205.10;2073.60;;;;;;5076567;28;19911;-79
2021/12/01 01:48:06;;;;;;;;;;;205.20;2099.20;;;;;;5075162;28;19977;-78
2021/12/01 01:50:36;;;;;;;;;;;205.10;2073.60;;;;;;5076397;28;19969;-79
2021/12/01 01:53:09;;;;;;;;;;;205.10;2048.00;;;;;;5076683;28;19911;-79
2021/12/01 01:55:36;;;;;;;;;;;205.10;2048.00;;;;;;5075117;28;19934;-80
2021/12/01 01:58:02;;;;;;;;;;;205.20;2048.00;;;;;;5075106;28;19904;-79
2021/12/01 02:00:27;;;;;;;;;;;205.20;2048.00;;;;;;5075032;28;19904;-76
2021/12/01 02:02:55;;;;;;;;;;;205.00;2048.00;;;;;;5074892;28;19991;-79
2021/12/01 02:05:22;;;;;;;;;;;205.20;2048.00;;;;;;5076150;28;19957;-79
2021/12/01 02:07:48;;;;;;;;;;;205.20;2022.40;;;;;;5074910;28;19943;-79
2021/12/01 02:10:13;;;;;;;;;;;205.20;2022.40;;;;;;5076313;28;19957;-79
2021/12/01 02:12:39;;;;;;;;;;;205.20;2022.40;;;;;;5076006;28;19991;-79
2021/12/01 02:15:06;;;;;;;;;;;205.20;2022.40;;;;;;5076018;28;20265;-80
2021/12/01 02:17:31;;;;;;;;;;;205.20;2022.40;;;;;;5074716;28;19911;-79
2021/12/01 02:19:57;;;;;;;;;;;205.20;2022.40;;;;;;5075964;28;19912;-80
2021/12/01 02:22:22;;;;;;;;;;;205.20;2022.40;;;;;;5075994;28;19999;-80
2021/12/01 02:24:48;;;;;;;;;;;205.20;2048.00;;;;;;5075730;28;19995;-79
2021/12/01 02:27:14;;;;;;;;;;;205.20;2048.00;;;;;;5076067;28;19987;-80
2021/12/01 02:29:40;;;;;;;;;;;205.20;2048.00;;;;;;5075708;28;19951;-79
2021/12/01 02:32:06;;;;;;;;;;;205.20;2048.00;;;;;;5075830;28;19943;-78
2021/12/01 02:34:33;;;;;;;;;;;205.20;2073.60;;;;;;5075453;28;19920;-80
2021/12/01 02:36:59;;;;;;;;;;;205.20;2073.60;;;;;;5075942;28;19944;-79
2021/12/01 02:39:25;;;;;;;;;;;205.20;2073.60;;;;;;5074494;28;19904;-79
2021/12/01 02:41:51;;;;;;;;;;;205.20;2073.60;;;;;;5075543;28;19951;-78
2021/12/01 02:44:17;;;;;;;;;;;205.20;2073.60;;;;;;5075713;28;19927;-79
2021/12/01 02:46:44;;;;;;;;;;;205.20;2073.60;;;;;;5074596;28;20352;-79
2021/12/01 02:49:10;;;;;;;;;;;205.10;2073.60;;;;;;5075297;28;20003;-79
2021/12/01 02:51:37;;;;;;;;;;;205.20;2073.60;;;;;;5074446;28;19912;-79
2021/12/01 02:54:04;;;;;;;;;;;205.30;2099.20;;;;;;5075005;28;19909;-79
2021/12/01 02:56:30;;;;;;;;;;;205.20;2099.20;;;;;;5075282;28;19908;-79
2021/12/01 02:58:58;;;;;;;;;;;205.20;2099.20;;;;;;5074340;28;20369;-79
2021/12/01 03:01:24;;;;;;;;;;;205.30;2124.80;;;;;;5073960;28;19999;-77
2021/12/01 03:03:50;;;;;;;;;;;205.20;2124.80;;;;;;5075307;28;20013;-79
2021/12/01 03:06:16;;;;;;;;;;;205.20;2150.40;;;;;;5074008;28;19904;-79
2021/12/01 03:08:42;;;;;;;;;;;205.30;2150.40;;;;;;5074157;28;20379;-79
2021/12/01 03:11:08;;;;;;;;;;;205.20;2124.80;;;;;;5075037;28;19908;-79
2021/12/01 03:13:34;;;;;;;;;;;205.10;2124.80;;;;;;5073751;28;19954;-79
2021/12/01 03:16:00;;;;;;;;;;;205.10;2150.40;;;;;;5073657;28;19909;-79
2021/12/01 03:18:26;;;;;;;;;;;205.10;2176.00;;;;;;5073748;28;19914;-80
2021/12/01 03:20:51;;;;;;;;;;;205.10;2176.00;;;;;;5075100;28;20335;-80
2021/12/01 03:23:17;;;;;;;;;;;204.90;2176.00;;;;;;5074797;28;20679;-79
2021/12/01 03:25:43;;;;;;;;;;;205.10;2176.00;;;;;;5074918;28;19905;-79
2021/12/01 03:28:09;;;;;;;;;;;205.00;2201.60;;;;;;5074404;28;19904;-78
2021/12/01 03:30:37;;;;;;;;;;;205.00;2176.00;;;;;;5074617;28;19912;-81
2021/12/01 03:33:10;;;;;;;;;;;205.00;2201.60;;;;;;5074597;28;20378;-80
2021/12/01 03:35:37;;;;;;;;;;;205.00;2201.60;;;;;;5073417;28;19960;-79
2021/12/01 03:38:02;;;;;;;;;;;204.90;2201.60;;;;;;5074544;28;19904;-79
2021/12/01 03:40:28;;;;;;;;;;;204.90;2201.60;;;;;;5074211;28;19904;-79
2021/12/01 03:42:53;;;;;;;;;;;204.90;2201.60;;;;;;5074461;28;19939;-79
2021/12/01 03:45:19;;;;;;;;;;;205.00;2201.60;;;;;;5074381;28;19927;-78
2021/12/01 03:47:45;;;;;;;;;;;205.00;2201.60;;;;;;5074454;28;19904;-79
2021/12/01 03:50:11;;;;;;;;;;;205.00;2201.60;;;;;;5072801;28;19927;-78
2021/12/01 03:52:37;;;;;;;;;;;205.00;2201.60;;;;;;5073400;28;19995;-80
2021/12/01 03:55:04;;;;;;;;;;;205.00;2201.60;;;;;;5074005;28;19916;-80
2021/12/01 03:57:29;;;;;;;;;;;205.00;2227.20;;;;;;5074095;28;19913;-79
2021/12/01 03:59:55;;;;;;;;;;;205.00;2201.60;;;;;;5072709;28;19905;-79
2021/12/01 04:02:20;;;;;;;;;;;205.00;2227.20;;;;;;5074174;28;19908;-79
2021/12/01 04:04:46;;;;;;;;;;;205.00;2201.60;;;;;;5073987;28;20307;-79
2021/12/01 04:07:12;;;;;;;;;;;204.90;2201.60;;;;;;5072098;28;19905;-79
2021/12/01 04:09:40;;;;;;;;;;;204.90;2227.20;;;;;;5074107;28;19926;-79
2021/12/01 04:12:05;;;;;;;;;;;204.90;2227.20;;;;;;5073878;28;19908;-80
2021/12/01 04:14:31;;;;;;;;;;;204.90;2227.20;;;;;;5073982;28;19919;-79
2021/12/01 04:16:57;;;;;;;;;;;205.00;2227.20;;;;;;5072635;28;19911;-79
2021/12/01 04:19:22;;;;;;;;;;;205.00;2201.60;;;;;;5073718;28;19908;-80
2021/12/01 04:21:48;;;;;;;;;;;180.10;2201.60;;;;;;5072603;28;19981;-80
2021/12/01 04:24:14;;;;;;;;;;;205.00;2227.20;;;;;;5073926;28;19954;-79
2021/12/01 04:26:40;;;;;;;;;;;204.90;2201.60;;;;;;5072304;28;19904;-79
2021/12/01 04:29:06;;;;;;;;;;;204.90;2201.60;;;;;;5073800;28;19904;-80
2021/12/01 04:31:33;;;;;;;;;;;205.00;2201.60;;;;;;5073846;28;19911;-80
2021/12/01 04:34:00;;;;;;;;;;;204.90;2227.20;;;;;;5073453;28;19970;-79
2021/12/01 04:36:29;;;;;;;;;;;205.00;2227.20;;;;;;5073937;28;20271;-79
2021/12/01 04:38:54;;;;;;;;;;;205.00;2201.60;;;;;;5073425;28;19911;-75
2021/12/01 04:41:22;;;;;;;;;;;204.90;2227.20;;;;;;5072550;28;19908;-80
2021/12/01 04:43:48;;;;;;;;;;;205.00;2201.60;;;;;;5073484;28;19904;-79
2021/12/01 04:46:19;;;;;;;;;;;205.00;2201.60;;;;;;5072259;28;20344;-78
2021/12/01 04:48:45;;;;;;;;;;;205.00;2201.60;;;;;;5073107;28;19924;-76
2021/12/01 04:51:11;;;;;;;;;;;204.90;2227.20;;;;;;5072029;28;20356;-78
2021/12/01 04:53:38;;;;;;;;;;;205.00;2201.60;;;;;;5073300;28;19999;-80
2021/12/01 04:56:04;;;;;;;;;;;205.00;2227.20;;;;;;5072198;28;20017;-80
2021/12/01 04:58:30;;;;;;;;;;;205.00;2201.60;;;;;;5073532;28;19908;-79
2021/12/01 05:00:59;;;;;;;;;;;205.00;2201.60;;;;;;5073035;28;19908;-79
2021/12/01 05:03:25;;;;;;;;;;;205.00;2201.60;;;;;;5073323;28;20000;-77
2021/12/01 05:05:51;;;;;;;;;;;205.00;2201.60;;;;;;5072051;28;19936;-80
2021/12/01 05:08:18;;;;;;;;;;;205.00;2201.60;;;;;;5073365;28;19943;-79
2021/12/01 05:10:43;;;;;;;;;;;205.10;2201.60;;;;;;5073205;28;19905;-80
2021/12/01 05:13:09;;;;;;;;;;;205.10;2201.60;;;;;;5073345;28;20272;-79
2021/12/01 05:15:35;;;;;;;;;;;205.10;2201.60;;;;;;5073055;28;19919;-80
2021/12/01 05:18:00;;;;;;;;;;;205.20;2201.60;;;;;;5075407;28;20595;-80
2021/12/01 05:20:26;;;;;;;;;;;205.10;2201.60;;;;;;5077154;28;19908;-79
2021/12/01 05:22:51;;;;;;;;;;;205.10;2201.60;;;;;;5076032;28;20371;-79
2021/12/01 05:25:17;;;;;;;;;;;205.10;2227.20;;;;;;5076043;28;19931;-80
2021/12/01 05:27:43;;;;;;;;;;;205.10;2227.20;;;;;;5076873;28;20256;-80
2021/12/01 05:30:08;;;;;;;;;;;205.10;2201.60;;;;;;5075917;28;19904;-79
2021/12/01 05:32:34;;;;;;;;;;;205.10;2227.20;;;;;;5076768;28;19904;-80
2021/12/01 05:35:00;;;;;;;;;;;205.10;2227.20;;;;;;5075928;28;20010;-79
2021/12/01 05:37:25;;;;;;;;;;;205.10;2252.80;;;;;;5075466;28;19991;-79
2021/12/01 05:39:51;;;;;;;;;;;205.10;2252.80;;;;;;5076704;28;19950;-79
2021/12/01 05:42:17;;;;;;;;;;;205.10;2227.20;;;;;;5075365;28;19909;-78
2021/12/01 05:44:43;;;;;;;;;;;205.10;2252.80;;;;;;5075037;28;19915;-78
2021/12/01 05:47:09;;;;;;;;;;;205.10;2252.80;;;;;;5076629;28;19908;-78
2021/12/01 05:49:41;;;;;;;;;;;205.10;2252.80;;;;;;5075966;28;19916;-77
2021/12/01 05:52:08;;;;;;;;;;;205.10;2252.80;;;;;;5076141;28;20372;-79
2021/12/01 05:54:33;;;;;;;;;;;205.00;2252.80;;;;;;5076372;28;20379;-79
2021/12/01 05:56:59;;;;;;;;;;;205.00;2252.80;;;;;;5075438;28;19904;-78
2021/12/01 05:59:24;;;;;;;;;;;205.10;2252.80;;;;;;5076284;28;19905;-78
2021/12/01 06:01:50;;;;;;;;;;;205.10;2252.80;;;;;;5076163;28;20007;-78
2021/12/01 06:04:15;;;;;;;;;;;205.10;2252.80;;;;;;5076206;28;19905;-79
2021/12/01 06:06:41;;;;;;;;;;;205.10;2252.80;;;;;;5076028;28;19908;-78
2021/12/01 06:09:07;;;;;;;;;;;205.10;2252.80;;;;;;5075543;28;20313;-77
2021/12/01 06:11:32;;;;;;;;;;;205.10;2252.80;;;;;;5074619;28;20374;-79
2021/12/01 06:13:58;;;;;;;;;;;205.10;2252.80;;;;;;5074758;28;20008;-77
2021/12/01 06:16:24;;;;;;;;;;;205.10;2252.80;;;;;;5076246;28;19905;-78
2021/12/01 06:18:50;;;;;;;;;;;205.10;2252.80;;;;;;5076289;28;19920;-80
2021/12/01 06:21:16;;;;;;;;;;;205.10;2252.80;;;;;;5075773;28;20387;-78
2021/12/01 06:23:42;;;;;;;;;;;205.10;2252.80;;;;;;5076140;28;19927;-80
2021/12/01 06:26:07;;;;;;;;;;;205.10;2252.80;;;;;;5075765;28;20353;-80
2021/12/01 06:28:33;;;;;;;;;;;205.10;2252.80;;;;;;5075192;28;19904;-77
2021/12/01 06:30:58;;;;;;;;;;;205.10;2252.80;;;;;;5075787;28;20001;-79
2021/12/01 06:33:24;;;;;;;;;;;205.00;2252.80;;;;;;5075937;28;19905;-79
2021/12/01 06:35:51;;;;;;;;;;;205.10;2252.80;;;;;;5074324;28;19939;-81
2021/12/01 06:38:18;;;;;;;;;;;205.10;2252.80;;;;;;5074342;28;20261;-79
2021/12/01 06:40:44;;;;;;;;;;;205.10;2252.80;;;;;;5075631;28;19966;-79
2021/12/01 06:43:10;;;;;;;;;;;205.20;2252.80;;;;;;5075364;28;19904;-78
2021/12/01 06:45:35;;;;;;;;;;;205.20;2252.80;;;;;;5075365;28;19950;-76
2021/12/01 06:48:01;;;;;;;;;;;205.20;2252.80;;;;;;5074415;28;19919;-79
2021/12/01 06:50:27;;;;;;;;;;;205.20;2252.80;;;;;;5075153;28;20289;-78
2021/12/01 06:52:52;;;;;;;;;;;205.20;2252.80;;;;;;5073518;28;19947;-79
2021/12/01 06:55:20;;;;;;;;;;;205.20;2252.80;;;;;;5075069;28;19916;-80
2021/12/01 06:57:46;;;;;;;;;;;205.30;2252.80;;;;;;5074892;28;19912;-79
2021/12/01 07:00:12;;;;;;;;;;;205.30;2252.80;;;;;;5074738;28;20348;-76
2021/12/01 07:02:37;;;;;;;;;;;205.40;2252.80;;;;;;5074717;28;20352;-80
2021/12/01 07:05:03;;;;;;;;;;;205.50;2252.80;;;;;;5073132;28;19905;-77
2021/12/01 07:07:29;;;;;;;;;;;205.50;2252.80;;;;;;5074651;28;19904;-79
2021/12/01 07:09:55;;;;;;;;;;;205.50;2252.80;;;;;;5074555;28;19965;-76
2021/12/01 07:12:21;;;;;;;;;;;205.60;2252.80;;;;;;5074362;28;20013;-78
2021/12/01 07:14:46;;;;;;;;;;;205.60;2252.80;;;;;;5073736;28;20072;-76
2021/12/01 07:17:12;;;;;;;;;;;205.70;2252.80;;;;;;5074189;28;19904;-76
2021/12/01 07:19:38;;;;;;;;;;;205.70;2252.80;;;;;;5074347;28;20344;-78
2021/12/01 07:22:03;;;;;;;;;;;205.70;2252.80;;;;;;5074210;28;20273;-75
2021/12/01 07:24:29;;;;;;;;;;;230.40;2252.80;;;;;;5072677;28;20360;-74
2021/12/01 07:26:55;;;;;;;;;;;230.40;2252.80;;;;;;5074051;28;19910;-78
2021/12/01 07:29:21;;;;;;;;;;;230.40;2252.80;;;;;;5073698;28;19987;-76
2021/12/01 07:31:48;;;;;;;;;;;230.50;2252.80;;;;;;5073910;28;20356;-79
2021/12/01 07:34:14;;;;;;;;;;;230.50;2252.80;;;;;;5073520;28;19919;-78
2021/12/01 07:36:40;;;;;;;;;;;231.00;2252.80;;;;;;5073385;28;19908;-78
2021/12/01 07:39:05;;;;;;;;;;;230.60;2252.80;;;;;;5073660;28;19905;-78
2021/12/01 07:41:31;;;;;;;;;;;230.60;2227.20;;;;;;5072592;28;20015;-78
2021/12/01 07:43:56;;;;;;;;;;;230.70;2227.20;;;;;;5073114;28;19912;-77
2021/12/01 07:46:22;;;;;;;;;;;230.80;2201.60;;;;;;5073685;28;20371;-78
2021/12/01 07:48:48;;;;;;;;;;;230.90;2201.60;;;;;;5073966;28;19917;-78
2021/12/01 07:51:15;;;;;;;;;;;230.90;2201.60;;;;;;5073436;28;19915;-77
2021/12/01 07:53:41;;;;;;;;;;;230.90;2201.60;;;;;;5073914;28;20369;-78
2021/12/01 07:56:07;;;;;;;;;;;231.00;2227.20;;;;;;5073247;28;19912;-76
2021/12/01 07:58:32;;;;;;;;;;;230.80;2252.80;;;;;;5073564;28;19910;-77
2021/12/01 08:00:58;;;;;;;;;;;230.90;2252.80;;;;;;5073411;28;20254;-77
2021/12/01 08:03:24;;;;;;;;;;;230.90;2252.80;;;;;;5073365;28;19905;-76
2021/12/01 08:05:50;;;;;;;;;;;230.90;2252.80;;;;;;5072159;28;19909;-77
2021/12/01 08:08:15;;;;;;;;;;;230.80;2252.80;;;;;;5073436;28;19912;-78
2021/12/01 08:10:41;;;;;;;;;;;230.90;2252.80;;;;;;5073661;28;19908;-77
2021/12/01 08:13:07;;;;;;;;;;;230.90;2252.80;;;;;;5073365;28;19904;-77
2021/12/01 08:15:33;;;;;;;;;;;230.90;2252.80;;;;;;5073589;28;20317;-77
2021/12/01 08:17:59;;;;;;;;;;;230.90;2252.80;;;;;;5072037;28;20364;-79
2021/12/01 08:20:25;;;;;;;;;;;231.00;2252.80;;;;;;5073731;28;19908;-78
2021/12/01 08:22:51;;;;;;;;;;;231.00;2252.80;;;;;;5073313;28;20023;-78
2021/12/01 08:25:16;;;;;;;;;;;231.00;2252.80;;;;;;5073408;28;19911;-78
2021/12/01 08:27:42;;;;;;;;;;;231.10;2252.80;;;;;;5073353;28;20375;-78
2021/12/01 08:30:08;;;;;;;;;;;231.10;2252.80;;;;;;5073297;28;19904;-78
2021/12/01 08:32:34;;;;;;;;;;;231.10;2227.20;;;;;;5073442;28;20277;-77
2021/12/01 08:34:59;;;;;;;;;;;231.20;2252.80;;;;;;5073084;28;19913;-77
2021/12/01 08:37:25;;;;;;;;;;;231.30;2252.80;;;;;;5073231;28;19910;-77
2021/12/01 08:39:51;;;;;;;;;;;231.30;2227.20;;;;;;5072945;28;19912;-78
2021/12/01 08:42:18;;;;;;;;;;;231.30;2252.80;;;;;;5073351;28;19958;-78
2021/12/01 08:44:46;;;;;;;;;;;231.20;2252.80;;;;;;5072935;28;19905;-78
2021/12/01 08:47:16;;;;;;;;;;;256.60;2252.80;;;;;;5073072;28;19904;-77
2021/12/01 08:49:42;;;;;;;;;;;231.20;2252.80;;;;;;5072795;28;19923;-77
2021/12/01 08:52:08;;;;;;;;;;;231.20;2252.80;;;;;;5072461;28;19954;-76
2021/12/01 08:54:34;;;;;;;;;;;231.30;2252.80;;;;;;5072805;28;19912;-77
2021/12/01 08:56:59;;;;;;;;;;;231.20;2252.80;;;;;;5071838;28;19911;-77
2021/12/01 08:59:25;;;;;;;;;;;231.20;2252.80;;;;;;5072949;28;20301;-78
2021/12/01 09:01:51;;;;;;;;;;;231.20;2252.80;;;;;;5071486;28;20021;-78
2021/12/01 09:04:17;;;;;;;;;;;231.30;2252.80;;;;;;5071769;28;19912;-78
2021/12/01 09:06:42;;;;;;;;;;;231.30;2252.80;;;;;;5072623;28;19959;-76
2021/12/01 09:09:09;;;;;;;;;;;256.00;2252.80;;;;;;5072804;28;20316;-78
2021/12/01 09:11:34;;;;;;;;;;;256.00;2252.80;;;;;;5072711;28;19979;-77
2021/12/01 09:14:00;;;;;;;;;;;256.10;2252.80;;;;;;5054547;28;19966;-74
2021/12/01 09:16:25;;;;;;;;;;;256.10;2252.80;;;;;;5085014;28;20359;-78
2021/12/01 09:18:51;;;;;;;;;;;256.20;2252.80;;;;;;5072620;28;19982;-76
2021/12/01 09:21:18;;;;;;;;;;;256.20;2252.80;;;;;;5072232;28;20387;-78
2021/12/01 09:23:44;;;;;;;;;;;256.30;2227.20;;;;;;5072670;28;19904;-78
2021/12/01 09:26:10;;;;;;;;;;;256.40;2201.60;;;;;;5072873;28;19915;-78
2021/12/01 09:28:35;;;;;;;;;;;256.40;2150.40;;;;;;5071561;28;19904;-77
2021/12/01 09:31:01;;;;;;;;;;;256.60;2099.20;;;;;;5072906;28;20044;-78
2021/12/01 09:33:28;;;;;;;;;;;256.80;2099.20;;;;;;5072527;28;19995;-79
2021/12/01 09:35:54;;;;;;;;;;;256.80;2048.00;;;;;;5071732;28;20288;-78
2021/12/01 09:38:20;;;;;;;;;;;256.90;2048.00;;;;;;5072280;28;19911;-78
2021/12/01 09:40:51;;;;;;;;;;;256.90;2048.00;;;;;;5072819;28;20358;-78
2021/12/01 09:43:19;;;;;;;;;;;281.70;2099.20;;;;;;5072360;28;19904;-76
2021/12/01 09:45:45;;;;;;;;;;;281.70;2124.80;;;;;;5072230;28;19933;-76
2021/12/01 09:48:11;;;;;;;;;;;281.90;2124.80;;;;;;5072287;28;19918;-77
2021/12/01 09:50:36;;;;;;;;;;;281.90;2073.60;;;;;;5071089;28;19916;-77
2021/12/01 09:53:02;;;;;;;;;;;282.00;2073.60;;;;;;5072438;28;19909;-78
2021/12/01 09:55:28;;;;;;;;;;;282.00;2073.60;;;;;;5072370;28;19965;-77
2021/12/01 09:57:58;;;;;;;;;;;282.10;2073.60;;;;;;5072496;28;19954;-77
2021/12/01 10:00:24;;;;;;;;;;;282.10;2073.60;;;;;;5071976;28;20009;-78
2021/12/01 10:02:50;;;;;;;;;;;282.20;2048.00;;;;;;5071860;28;19952;-78
2021/12/01 10:05:34;;;;;;;;;;;282.20;2073.60;;;;;;5074181;28;19904;-78
2021/12/01 10:07:59;;;;;;;;;;;282.20;2150.40;;;;;;5073394;28;19904;-77
2021/12/01 10:10:25;;;;;;;;;;;282.40;2150.40;;;;;;5075403;28;20356;-77
2021/12/01 10:12:51;;;;;;;;;;;282.40;2073.60;;;;;;5075464;28;19916;-77
2021/12/01 10:15:30;;;;;;;;;;;282.50;2048.00;;;;;;5075516;28;19956;-77
2021/12/01 10:18:12;;;;;;;;;;;307.20;1945.60;;;;;;5075427;28;19908;-78
2021/12/01 10:20:38;;;;;;;;;;;307.40;1894.40;;;;;;5075680;28;20355;-77
2021/12/01 10:23:13;;;;;;;;;;;307.50;1920.00;;;;;;5075655;28;19936;-77
2021/12/01 10:25:39;;;;;;;;;;;307.60;1920.00;;;;;;5075355;28;19904;-77
2021/12/01 10:28:05;;;;;;;;;;;307.60;1868.80;;;;;;5075608;28;20002;-77
2021/12/01 10:30:39;;;;;;;;;;;307.60;1894.40;;;;;;5075524;28;19952;-77
2021/12/01 10:33:09;;;;;;;;;;;307.60;1868.80;;;;;;5075194;28;19904;-78
2021/12/01 10:35:35;;;;;;;;;;;307.70;1843.20;;;;;;5075271;28;20007;-77
2021/12/01 10:38:01;;;;;;;;;;;307.80;1843.20;;;;;;5075037;28;20102;-77
2021/12/01 10:40:27;;;;;;;;;;;307.80;1868.80;;;;;;5075260;28;19992;-77
2021/12/01 10:43:00;;;;;;;;;;;307.90;1868.80;;;;;;5074993;28;20348;-76
2021/12/01 10:45:25;;;;;;;;;;;307.80;1868.80;;;;;;5075115;28;19951;-77
2021/12/01 10:47:51;;;;;;;;;;;307.80;1868.80;;;;;;5074706;28;19950;-76
2021/12/01 10:50:18;;;;;;;;;;;308.00;1894.40;;;;;;5074732;28;19920;-77
2021/12/01 10:52:47;;;;;;;;;;;307.90;1945.60;;;;;;5074899;28;19912;-77
2021/12/01 10:55:17;;;;;;;;;;;307.90;2022.40;;;;;;5074930;28;19912;-77
2021/12/01 10:57:47;;;;;;;;;;;307.80;2073.60;;;;;;5075047;28;19912;-77
2021/12/01 11:00:22;;;;;;;;;;;307.60;2124.80;;;;;;5074207;28;20000;-77
2021/12/01 11:02:48;;;;;;;;;;;307.80;2150.40;;;;;;5072507;28;20268;-76
2021/12/01 11:05:31;;;;;;;;;;;307.80;2176.00;;;;;;5074358;28;19911;-78
2021/12/01 11:08:08;;;;;;;;;;;308.10;2176.00;;;;;;5074081;28;19912;-78
2021/12/01 11:10:34;;;;;;;;;;;332.90;2099.20;;;;;;5073234;28;19995;-77
2021/12/01 11:13:01;;;;;;;;;;;332.90;2073.60;;;;;;5072780;28;19962;-79
2021/12/01 11:15:29;;;;;;;;;;;333.20;1971.20;;;;;;5073789;28;19938;-76
2021/12/01 11:17:55;;;;;;;;;;;332.90;1945.60;;;;;;5074542;28;19970;-77
2021/12/01 11:20:33;;;;;;;;;;;308.10;1945.60;;;;;;5074118;28;19913;-79
2021/12/01 11:23:10;;;;;;;;;;;308.10;1971.20;;;;;;5074645;28;20250;-77
2021/12/01 11:25:37;;;;;;;;;;;308.10;1996.80;;;;;;5074671;28;19905;-76
2021/12/01 11:28:04;;;;;;;;;;;333.00;1945.60;;;;;;5074329;28;19927;-77
2021/12/01 11:30:29;;;;;;;;;;;333.20;1920.00;;;;;;5074222;28;19904;-78
2021/12/01 11:32:55;;;;;;;;;;;333.30;1843.20;;;;;;5073874;28;19908;-78
2021/12/01 11:35:21;;;;;;;;;;;333.50;1817.60;;;;;;5074343;28;20030;-77
2021/12/01 11:37:54;;;;;;;;;;;333.60;1817.60;;;;;;5072751;28;19915;-76
2021/12/01 11:40:21;;;;;;;;;;;333.40;1843.20;;;;;;5073829;28;19915;-77
2021/12/01 11:42:46;;;;;;;;;;;333.40;1843.20;;;;;;5073774;28;20345;-77
2021/12/01 11:45:12;;;;;;;;;;;333.50;1843.20;;;;;;5073645;28;19908;-77
2021/12/01 11:47:40;;;;;;;;;;;333.70;1817.60;;;;;;5072537;28;19904;-79
2021/12/01 11:50:07;;;;;;;;;;;333.60;1843.20;;;;;;5073440;28;19928;-78
2021/12/01 11:52:37;;;;;;;;;;;358.40;1843.20;;;;;;5073936;28;19908;-79
2021/12/01 11:55:03;;;;;;;;;;;358.40;1792.00;;;;;;5073518;28;19919;-76
2021/12/01 11:57:37;;;;;;;;;;;358.50;1843.20;;;;;;5073839;28;19904;-77
2021/12/01 12:00:03;;;;;;;;;;;358.50;1817.60;;;;;;5071777;28;19915;-78
2021/12/01 12:02:29;;;;;;;;;;;358.50;1792.00;;;;;;5072143;28;21198;-76
2021/12/01 12:04:55;;;;;;;;;;;333.50;1843.20;;;;;;5073084;28;19904;-77
2021/12/01 12:07:29;;;;;;;;;;;333.50;1843.20;;;;;;5073325;28;20323;-78
2021/12/01 12:10:02;;;;;;;;;;;333.50;1894.40;;;;;;5070411;28;19904;-78
2021/12/01 12:12:42;;;;;;;;;;;333.50;1843.20;;;;;;5073255;28;19927;-77
2021/12/01 12:15:08;;;;;;;;;;;333.40;1868.80;;;;;;5073471;28;19935;-75
2021/12/01 12:17:35;;;;;;;;;;;333.40;1817.60;;;;;;5073180;28;20268;-77
2021/12/01 12:20:07;;;;;;;;;;;333.50;1843.20;;;;;;5071657;28;20423;-77
2021/12/01 12:22:43;;;;;;;;;;;358.40;1817.60;;;;;;5073305;28;20042;-79
2021/12/01 12:25:11;;;;;;;;;;;333.70;1843.20;;;;;;5073517;28;20016;-77
2021/12/01 12:27:38;;;;;;;;;;;333.50;1868.80;;;;;;5073127;28;19904;-77
2021/12/01 12:30:24;;;;;;;;;;;333.40;1868.80;;;;;;5073083;28;20276;-76
2021/12/01 12:33:10;;;;;;;;;;;333.50;1894.40;;;;;;5065578;28;19912;-76
2021/12/01 12:35:43;;;;;;;;;;;333.50;1817.60;;;;;;5072834;28;20327;-74
2021/12/01 12:38:09;;;;;;;;;;;333.60;1843.20;;;;;;5073123;28;19912;-76
2021/12/01 12:40:34;;;;;;;;;;;333.60;1843.20;;;;;;5072974;28;19908;-79
2021/12/01 12:43:19;;;;;;;;;;;333.60;1843.20;;;;;;5073179;28;19943;-77
2021/12/01 12:45:59;;;;;;;;;;;333.40;1868.80;;;;;;5071454;28;19908;-76
2021/12/01 12:48:27;;;;;;;;;;;333.40;1868.80;;;;;;5072320;28;20278;-77
2021/12/01 12:51:11;;;;;;;;;;;333.30;1920.00;;;;;;5072953;28;19913;-77
2021/12/01 12:53:57;;;;;;;;;;;333.20;1971.20;;;;;;5072555;28;19927;-76
2021/12/01 12:56:24;;;;;;;;;;;333.00;1996.80;;;;;;5072842;28;19920;-77
2021/12/01 12:58:50;;;;;;;;;;;333.10;1996.80;;;;;;5072899;28;19910;-77
2021/12/01 13:01:25;;;;;;;;;;;332.90;2048.00;;;;;;5071512;28;20010;-76
2021/12/01 13:03:53;;;;;;;;;;;332.90;2048.00;;;;;;5072790;28;19936;-76
2021/12/01 13:06:26;;;;;;;;;;;332.90;2048.00;;;;;;5071471;28;19904;-76
2021/12/01 13:08:51;;;;;;;;;;;332.90;2048.00;;;;;;5072492;28;19908;-76
2021/12/01 13:11:20;;;;;;;;;;;333.00;2073.60;;;;;;5072754;28;19911;-77
2021/12/01 13:13:45;;;;;;;;;;;333.00;2048.00;;;;;;5072652;28;19995;-75
2021/12/01 13:16:12;;;;;;;;;;;333.10;2022.40;;;;;;5072606;28;20012;-77
2021/12/01 13:18:40;;;;;;;;;;;333.20;2048.00;;;;;;5072606;28;19909;-77
2021/12/01 13:21:07;;;;;;;;;;;333.10;2048.00;;;;;;5072859;28;19995;-77
2021/12/01 13:23:43;;;;;;;;;;;333.00;2048.00;;;;;;5071013;28;19904;-77
2021/12/01 13:26:13;;;;;;;;;;;333.00;2022.40;;;;;;5072671;28;20322;-76
2021/12/01 13:28:39;;;;;;;;;;;333.00;2048.00;;;;;;5072886;28;19958;-76
2021/12/01 13:31:12;;;;;;;;;;;333.10;1996.80;;;;;;5072524;28;19904;-77
2021/12/01 13:33:51;;;;;;;;;;;333.20;1996.80;;;;;;5072548;28;19905;-77
2021/12/01 13:36:17;;;;;;;;;;;333.20;1945.60;;;;;;5072184;28;19918;-77
2021/12/01 13:38:43;;;;;;;;;;;333.00;1920.00;;;;;;5072687;28;20006;-76
2021/12/01 13:41:16;;;;;;;;;;;333.30;1945.60;;;;;;5076498;28;19911;-77
2021/12/01 13:43:43;;;;;;;;;;;333.20;1945.60;;;;;;5076127;28;20364;-77